Time;durP1;ratioP1;P1;durP2;ratioP2;P2;SDS_P1;SDS_P2;PMS_P1;PMS_P2;Temp;Humidity;BMP_temperature;BMP_pressure;BME280_temperature;BME280_humidity;BME280_pressure;Samples;Min_cycle;Max_cycle;Signal;HPM_P1;HPM_P2
2022/12/20 00:00:51;;;;;;;30.50;17.95;;;;;;;;;;2086107;28;20052;-67
2022/12/20 00:02:10;;;;;;;31.80;17.77;;;;;;;;;;2087683;28;20040;-68
2022/12/20 00:03:29;;;;;;;26.80;17.23;;;;;;;;;;2087379;28;20025;-68
2022/12/20 00:04:48;;;;;;;32.35;18.67;;;;;;;;;;2087415;28;20041;-67
2022/12/20 00:06:07;;;;;;;30.85;17.02;;;;;;;;;;2085182;28;21675;-67
2022/12/20 00:07:26;;;;;;;29.67;17.55;;;;;;;;;;2085809;28;20029;-67
2022/12/20 00:08:46;;;;;;;35.20;18.42;;;;;;;;;;2088408;28;20060;-67
2022/12/20 00:10:05;;;;;;;29.92;17.83;;;;;;;;;;2086959;28;20508;-67
2022/12/20 00:11:24;;;;;;;36.00;19.25;;;;;;;;;;2086826;28;20037;-67
2022/12/20 00:12:43;;;;;;;31.80;17.45;;;;;;;;;;2086213;28;20013;-68
2022/12/20 00:14:02;;;;;;;28.33;17.83;;;;;;;;;;2087654;28;20032;-68
2022/12/20 00:15:21;;;;;;;28.55;16.88;;;;;;;;;;2087222;28;20033;-67
2022/12/20 00:16:40;;;;;;;34.65;16.85;;;;;;;;;;2088902;28;20501;-67
2022/12/20 00:17:59;;;;;;;29.63;16.88;;;;;;;;;;2087774;28;20037;-67
2022/12/20 00:19:18;;;;;;;26.27;16.77;;;;;;;;;;2089801;28;20037;-68
2022/12/20 00:20:37;;;;;;;30.02;17.92;;;;;;;;;;2089449;28;20040;-68
2022/12/20 00:21:56;;;;;;;27.42;16.67;;;;;;;;;;2089625;28;20675;-68
2022/12/20 00:23:15;;;;;;;28.40;17.17;;;;;;;;;;2089817;28;20028;-67
2022/12/20 00:24:34;;;;;;;27.95;18.05;;;;;;;;;;2090026;28;20033;-68
2022/12/20 00:25:58;;;;;;;29.45;18.02;;;;;;;;;;2088722;28;20453;-69
2022/12/20 00:27:17;;;;;;;27.98;17.48;;;;;;;;;;2090354;28;20045;-67
2022/12/20 00:28:36;;;;;;;27.52;16.75;;;;;;;;;;2089011;28;20021;-68
2022/12/20 00:29:55;;;;;;;33.13;18.33;;;;;;;;;;2088706;28;20112;-68
2022/12/20 00:31:14;;;;;;;34.78;19.52;;;;;;;;;;2089536;28;20041;-68
2022/12/20 00:32:33;;;;;;;32.83;18.88;;;;;;;;;;2089785;28;20108;-67
2022/12/20 00:33:53;;;;;;;30.67;17.35;;;;;;;;;;2087232;28;20116;-68
2022/12/20 00:35:13;;;;;;;34.38;18.60;;;;;;;;;;2089041;28;20029;-68
2022/12/20 00:36:32;;;;;;;31.85;17.65;;;;;;;;;;2087310;28;20025;-68
2022/12/20 00:37:51;;;;;;;29.23;18.17;;;;;;;;;;2089211;28;20494;-68
2022/12/20 00:39:10;;;;;;;31.45;18.23;;;;;;;;;;2089629;28;20108;-68
2022/12/20 00:40:29;;;;;;;29.13;17.60;;;;;;;;;;2088131;28;20433;-68
2022/12/20 00:41:48;;;;;;;29.70;16.83;;;;;;;;;;2087545;28;20445;-68
2022/12/20 00:43:07;;;;;;;28.77;17.45;;;;;;;;;;2089513;28;20029;-68
2022/12/20 00:44:27;;;;;;;27.45;16.90;;;;;;;;;;2089592;28;20041;-68
2022/12/20 00:45:46;;;;;;;28.33;16.77;;;;;;;;;;2089430;28;20485;-67
2022/12/20 00:47:04;;;;;;;24.75;16.02;;;;;;;;;;2088477;28;20049;-68
2022/12/20 00:48:23;;;;;;;30.02;17.00;;;;;;;;;;2089806;28;20021;-68
2022/12/20 00:49:42;;;;;;;30.27;17.15;;;;;;;;;;2088630;28;20021;-68
2022/12/20 00:51:09;;;;;;;26.85;16.50;;;;;;;;;;2088434;28;20037;-68
2022/12/20 00:52:28;;;;;;;29.58;17.10;;;;;;;;;;2089028;28;20033;-68
2022/12/20 00:53:47;;;;;;;26.05;17.00;;;;;;;;;;2089635;28;20037;-68
2022/12/20 00:55:06;;;;;;;28.98;18.15;;;;;;;;;;2089671;28;20107;-68
2022/12/20 00:56:25;;;;;;;30.67;17.73;;;;;;;;;;2088417;28;20033;-68
2022/12/20 00:57:44;;;;;;;29.73;18.42;;;;;;;;;;2089885;28;20041;-68
2022/12/20 00:59:03;;;;;;;30.67;19.65;;;;;;;;;;2089649;28;20474;-68
2022/12/20 01:00:22;;;;;;;31.90;19.65;;;;;;;;;;2087846;28;20493;-68
2022/12/20 01:01:41;;;;;;;32.83;20.10;;;;;;;;;;2088885;28;20056;-68
2022/12/20 01:03:00;;;;;;;34.47;19.60;;;;;;;;;;2089495;28;20037;-68
2022/12/20 01:04:19;;;;;;;31.17;18.63;;;;;;;;;;2089001;28;20460;-67
2022/12/20 01:05:38;;;;;;;27.25;17.60;;;;;;;;;;2089563;28;20037;-68
2022/12/20 01:06:57;;;;;;;33.13;19.10;;;;;;;;;;2087604;28;20036;-68
2022/12/20 01:08:16;;;;;;;33.15;19.23;;;;;;;;;;2089130;28;20037;-67
2022/12/20 01:09:35;;;;;;;33.80;20.08;;;;;;;;;;2089553;28;20037;-68
2022/12/20 01:11:01;;;;;;;31.52;19.17;;;;;;;;;;2088888;28;20104;-68
2022/12/20 01:12:19;;;;;;;29.48;18.30;;;;;;;;;;2088164;28;20025;-68
2022/12/20 01:13:40;;;;;;;32.38;19.20;;;;;;;;;;2089924;28;20239;-69
2022/12/20 01:14:59;;;;;;;28.52;17.00;;;;;;;;;;2089854;28;20029;-67
2022/12/20 01:16:20;;;;;;;29.88;18.88;;;;;;;;;;2089494;28;20104;-68
2022/12/20 01:17:39;;;;;;;28.20;18.90;;;;;;;;;;2087089;28;20720;-68
2022/12/20 01:18:59;;;;;;;35.63;20.35;;;;;;;;;;2087996;28;20378;-68
2022/12/20 01:20:18;;;;;;;30.00;19.25;;;;;;;;;;2088590;28;20025;-69
2022/12/20 01:21:38;;;;;;;31.27;18.15;;;;;;;;;;2089831;28;20033;-70
2022/12/20 01:22:57;;;;;;;29.13;18.63;;;;;;;;;;2086026;28;20033;-68
2022/12/20 01:24:19;;;;;;;30.70;18.38;;;;;;;;;;2086302;28;20025;-68
2022/12/20 01:25:37;;;;;;;32.33;20.13;;;;;;;;;;2087042;28;20108;-68
2022/12/20 01:26:56;;;;;;;31.67;18.45;;;;;;;;;;2088147;28;20505;-68
2022/12/20 01:28:15;;;;;;;31.08;18.83;;;;;;;;;;2088085;28;20516;-68
2022/12/20 01:29:34;;;;;;;34.78;18.90;;;;;;;;;;2088287;28;20484;-68
2022/12/20 01:30:53;;;;;;;33.85;18.92;;;;;;;;;;2087839;28;20484;-68
2022/12/20 01:32:12;;;;;;;30.88;20.35;;;;;;;;;;2088166;28;20033;-68
2022/12/20 01:33:30;;;;;;;28.42;17.77;;;;;;;;;;2084723;28;20040;-68
2022/12/20 01:34:49;;;;;;;32.20;19.20;;;;;;;;;;2089480;28;20028;-68
2022/12/20 01:36:16;;;;;;;28.65;17.83;;;;;;;;;;2088824;28;20028;-68
2022/12/20 01:37:35;;;;;;;29.98;17.33;;;;;;;;;;2088310;28;20024;-68
2022/12/20 01:38:58;;;;;;;32.65;19.02;;;;;;;;;;2088671;28;20029;-68
2022/12/20 01:40:16;;;;;;;29.55;17.65;;;;;;;;;;2083447;28;20022;-70
2022/12/20 01:41:36;;;;;;;32.20;18.55;;;;;;;;;;2086111;28;20053;-68
2022/12/20 01:42:55;;;;;;;35.40;19.73;;;;;;;;;;2088124;28;20439;-67
2022/12/20 01:44:18;;;;;;;28.83;17.80;;;;;;;;;;2089150;28;20111;-68
2022/12/20 01:45:36;;;;;;;34.88;19.50;;;;;;;;;;2087454;28;20032;-68
2022/12/20 01:46:56;;;;;;;32.45;19.73;;;;;;;;;;2088214;28;20063;-68
2022/12/20 01:48:20;;;;;;;34.25;19.70;;;;;;;;;;2088421;28;20041;-67
2022/12/20 01:49:41;;;;;;;34.28;19.80;;;;;;;;;;2089433;28;20033;-68
2022/12/20 01:51:01;;;;;;;33.85;19.55;;;;;;;;;;2087011;28;20033;-68
2022/12/20 01:52:40;;;;;;;32.38;20.23;;;;;;;;;;2088513;28;20052;-68
2022/12/20 01:54:02;;;;;;;35.83;20.33;;;;;;;;;;2089167;28;20637;-67
2022/12/20 01:55:23;;;;;;;34.33;19.80;;;;;;;;;;2088975;28;20041;-68
2022/12/20 01:56:44;;;;;;;35.33;20.30;;;;;;;;;;2088956;28;20017;-68
2022/12/20 01:58:08;;;;;;;36.17;19.48;;;;;;;;;;2088737;28;20033;-69
2022/12/20 01:59:28;;;;;;;35.88;19.50;;;;;;;;;;2089418;28;20413;-67
2022/12/20 02:00:47;;;;;;;35.17;20.08;;;;;;;;;;2087017;28;20053;-68
2022/12/20 02:02:08;;;;;;;38.97;20.42;;;;;;;;;;2088783;28;20033;-68
2022/12/20 02:03:29;;;;;;;34.33;20.25;;;;;;;;;;2087819;28;20033;-67
2022/12/20 02:04:48;;;;;;;30.85;18.63;;;;;;;;;;2089051;28;20445;-68
2022/12/20 02:06:19;;;;;;;33.95;19.63;;;;;;;;;;2089060;28;20037;-68
2022/12/20 02:07:38;;;;;;;37.42;18.40;;;;;;;;;;2088274;28;20386;-68
2022/12/20 02:08:58;;;;;;;31.90;19.80;;;;;;;;;;2087327;28;20123;-68
2022/12/20 02:10:18;;;;;;;33.60;20.05;;;;;;;;;;2087537;28;20099;-68
2022/12/20 02:11:40;;;;;;;36.08;19.05;;;;;;;;;;2089234;28;20549;-68
2022/12/20 02:13:05;;;;;;;37.63;20.58;;;;;;;;;;2088037;28;20037;-69
2022/12/20 02:14:24;;;;;;;39.55;21.08;;;;;;;;;;2089047;28;20065;-68
2022/12/20 02:15:52;;;;;;;38.45;20.95;;;;;;;;;;2088182;28;20025;-68
2022/12/20 02:17:10;;;;;;;39.38;20.40;;;;;;;;;;2089233;28;20049;-68
2022/12/20 02:18:35;;;;;;;38.03;20.50;;;;;;;;;;2088374;28;20025;-67
2022/12/20 02:20:05;;;;;;;44.15;23.40;;;;;;;;;;2087927;28;20032;-68
2022/12/20 02:21:33;;;;;;;42.55;23.02;;;;;;;;;;2088186;28;20033;-68
2022/12/20 02:23:15;;;;;;;39.92;22.27;;;;;;;;;;2088025;28;20054;-68
2022/12/20 02:24:47;;;;;;;36.22;20.55;;;;;;;;;;2088764;28;20477;-69
2022/12/20 02:26:25;;;;;;;37.53;20.07;;;;;;;;;;2088202;28;20401;-67
2022/12/20 02:27:59;;;;;;;45.08;22.45;;;;;;;;;;2089251;28;20239;-68
2022/12/20 02:29:26;;;;;;;41.70;22.05;;;;;;;;;;2089004;28;20033;-68
2022/12/20 02:30:46;;;;;;;40.30;21.67;;;;;;;;;;2088007;28;20025;-68
2022/12/20 02:32:05;;;;;;;41.85;22.35;;;;;;;;;;2089203;28;20075;-68
2022/12/20 02:33:25;;;;;;;40.38;21.77;;;;;;;;;;2087464;28;20037;-68
2022/12/20 02:34:45;;;;;;;39.05;20.77;;;;;;;;;;2089126;28;20047;-68
2022/12/20 02:36:04;;;;;;;39.25;21.70;;;;;;;;;;2088687;28;20061;-68
2022/12/20 02:37:23;;;;;;;41.05;21.60;;;;;;;;;;2086895;28;20140;-68
2022/12/20 02:38:43;;;;;;;38.85;22.42;;;;;;;;;;2086083;28;20061;-68
2022/12/20 02:40:03;;;;;;;37.80;22.48;;;;;;;;;;2088226;28;20025;-68
2022/12/20 02:41:24;;;;;;;40.03;22.23;;;;;;;;;;2088048;28;20576;-68
2022/12/20 02:42:43;;;;;;;41.25;21.33;;;;;;;;;;2088988;28;20460;-67
2022/12/20 02:45:48;;;;;;;39.33;20.90;;;;;;;;;;2087852;28;20033;-68
2022/12/20 02:47:10;;;;;;;37.55;20.90;;;;;;;;;;2088967;28;20033;-68
2022/12/20 02:48:30;;;;;;;38.08;21.23;;;;;;;;;;2087963;28;20100;-68
2022/12/20 02:49:50;;;;;;;40.63;22.50;;;;;;;;;;2088824;28;20394;-68
2022/12/20 02:51:10;;;;;;;40.25;22.25;;;;;;;;;;2088748;28;20037;-68
2022/12/20 02:52:29;;;;;;;39.60;21.20;;;;;;;;;;2088868;28;20061;-68
2022/12/20 02:53:49;;;;;;;39.85;21.27;;;;;;;;;;2088054;28;20029;-67
2022/12/20 02:55:08;;;;;;;44.78;21.85;;;;;;;;;;2088848;28;20029;-68
2022/12/20 02:56:33;;;;;;;43.53;22.33;;;;;;;;;;2088579;28;20025;-67
2022/12/20 02:57:58;;;;;;;38.35;21.33;;;;;;;;;;2088431;28;20033;-67
2022/12/20 02:59:20;;;;;;;37.67;22.45;;;;;;;;;;2086867;28;20021;-67
2022/12/20 03:00:41;;;;;;;37.65;20.90;;;;;;;;;;2087636;28;20066;-68
2022/12/20 03:02:00;;;;;;;39.60;21.80;;;;;;;;;;2089082;28;20533;-67
2022/12/20 03:03:23;;;;;;;38.03;21.00;;;;;;;;;;2088427;28;20462;-68
2022/12/20 03:04:42;;;;;;;39.00;20.42;;;;;;;;;;2087434;28;20108;-68
2022/12/20 03:06:01;;;;;;;39.08;21.30;;;;;;;;;;2088247;28;20561;-67
2022/12/20 03:07:20;;;;;;;39.08;21.23;;;;;;;;;;2088240;28;20064;-67
2022/12/20 03:08:39;;;;;;;39.92;22.50;;;;;;;;;;2088192;28;20060;-68
2022/12/20 03:09:58;;;;;;;39.67;20.27;;;;;;;;;;2088910;28;20045;-67
2022/12/20 03:11:19;;;;;;;35.92;19.92;;;;;;;;;;2088975;28;20108;-68
2022/12/20 03:12:38;;;;;;;38.92;21.58;;;;;;;;;;2088314;28;20092;-67
2022/12/20 03:13:57;;;;;;;32.30;19.55;;;;;;;;;;2087920;28;20425;-67
2022/12/20 03:15:15;;;;;;;34.70;19.73;;;;;;;;;;2087149;28;20541;-68
2022/12/20 03:16:34;;;;;;;36.92;21.17;;;;;;;;;;2088868;28;20025;-68
2022/12/20 03:17:53;;;;;;;36.83;21.02;;;;;;;;;;2088442;28;20474;-69
2022/12/20 03:19:12;;;;;;;39.17;19.50;;;;;;;;;;2087004;28;20033;-68
2022/12/20 03:20:31;;;;;;;36.03;19.48;;;;;;;;;;2086445;28;21276;-67
2022/12/20 03:21:50;;;;;;;38.72;19.70;;;;;;;;;;2088437;28;20334;-67
2022/12/20 03:23:09;;;;;;;38.90;20.20;;;;;;;;;;2088380;28;20029;-67
2022/12/20 03:24:29;;;;;;;37.75;20.10;;;;;;;;;;2087873;28;20032;-67
2022/12/20 03:25:48;;;;;;;37.05;21.58;;;;;;;;;;2087410;28;20537;-67
2022/12/20 03:27:07;;;;;;;37.08;20.83;;;;;;;;;;2088376;28;20037;-67
2022/12/20 03:28:26;;;;;;;35.58;19.23;;;;;;;;;;2087514;28;20120;-68
2022/12/20 03:29:45;;;;;;;33.10;19.15;;;;;;;;;;2087999;28;20107;-68
2022/12/20 03:31:04;;;;;;;33.47;19.42;;;;;;;;;;2085320;28;20095;-68
2022/12/20 03:32:23;;;;;;;34.35;19.25;;;;;;;;;;2088583;28;20120;-68
2022/12/20 03:33:42;;;;;;;35.22;18.83;;;;;;;;;;2087328;28;20025;-69
2022/12/20 03:35:01;;;;;;;34.50;19.00;;;;;;;;;;2088636;28;20132;-69
2022/12/20 03:36:22;;;;;;;29.25;18.25;;;;;;;;;;2088605;28;20033;-68
2022/12/20 03:37:41;;;;;;;32.45;18.75;;;;;;;;;;2088410;28;20059;-68
2022/12/20 03:39:00;;;;;;;32.15;18.38;;;;;;;;;;2087107;28;20587;-69
2022/12/20 03:40:19;;;;;;;35.20;20.02;;;;;;;;;;2087857;28;20025;-68
2022/12/20 03:41:38;;;;;;;30.98;18.98;;;;;;;;;;2088723;28;20060;-68
2022/12/20 03:42:57;;;;;;;32.53;20.38;;;;;;;;;;2088043;28;20489;-68
2022/12/20 03:44:16;;;;;;;35.85;19.77;;;;;;;;;;2088362;28;20033;-68
2022/12/20 03:45:35;;;;;;;34.95;20.77;;;;;;;;;;2087541;28;20029;-68
2022/12/20 03:46:54;;;;;;;39.75;19.80;;;;;;;;;;2088384;28;20064;-68
2022/12/20 03:48:13;;;;;;;33.28;19.92;;;;;;;;;;2088580;28;20040;-68
2022/12/20 03:49:32;;;;;;;41.20;21.35;;;;;;;;;;2088400;28;20025;-68
2022/12/20 03:50:51;;;;;;;34.47;19.58;;;;;;;;;;2088829;28;20033;-68
2022/12/20 03:52:11;;;;;;;37.80;19.75;;;;;;;;;;2089157;28;20033;-69
2022/12/20 03:53:30;;;;;;;37.58;20.73;;;;;;;;;;2089675;28;20524;-68
2022/12/20 03:54:49;;;;;;;38.95;20.08;;;;;;;;;;2088751;28;20029;-69
2022/12/20 03:56:08;;;;;;;40.70;21.15;;;;;;;;;;2089251;28;20037;-68
2022/12/20 03:57:27;;;;;;;36.33;20.52;;;;;;;;;;2087431;28;20063;-70
2022/12/20 03:58:46;;;;;;;35.50;19.70;;;;;;;;;;2089104;28;20025;-68
2022/12/20 04:00:05;;;;;;;35.92;18.90;;;;;;;;;;2089338;28;20111;-68
2022/12/20 04:01:26;;;;;;;39.22;21.13;;;;;;;;;;2089103;28;20025;-68
2022/12/20 04:02:45;;;;;;;37.88;20.70;;;;;;;;;;2090348;28;20033;-67
2022/12/20 04:04:04;;;;;;;35.08;19.73;;;;;;;;;;2089576;28;20029;-68
2022/12/20 04:05:23;;;;;;;36.38;21.27;;;;;;;;;;2089991;28;20040;-68
2022/12/20 04:06:42;;;;;;;35.83;21.17;;;;;;;;;;2090678;28;20029;-68
2022/12/20 04:08:01;;;;;;;36.58;20.73;;;;;;;;;;2089787;28;20040;-68
2022/12/20 04:09:20;;;;;;;35.15;20.25;;;;;;;;;;2089826;28;20037;-67
2022/12/20 04:12:17;;;;;;;33.13;19.80;;;;;;;;;;2089968;28;20498;-67
2022/12/20 04:13:36;;;;;;;34.67;19.92;;;;;;;;;;2089562;28;20037;-67
2022/12/20 04:14:55;;;;;;;36.85;19.08;;;;;;;;;;2088965;28;20100;-68
2022/12/20 04:16:15;;;;;;;34.85;20.25;;;;;;;;;;2089484;28;20033;-68
2022/12/20 04:17:34;;;;;;;37.72;20.35;;;;;;;;;;2090234;28;20117;-68
2022/12/20 04:18:53;;;;;;;36.65;20.58;;;;;;;;;;2090761;28;20385;-68
2022/12/20 04:20:18;;;;;;;35.58;19.65;;;;;;;;;;2089248;28;20037;-68
2022/12/20 04:21:37;;;;;;;35.88;19.13;;;;;;;;;;2089455;28;20021;-67
2022/12/20 04:22:56;;;;;;;32.97;19.63;;;;;;;;;;2089121;28;20029;-67
2022/12/20 04:24:15;;;;;;;37.25;20.38;;;;;;;;;;2088306;28;20032;-68
2022/12/20 04:25:34;;;;;;;34.67;19.35;;;;;;;;;;2089569;28;20037;-68
2022/12/20 04:26:53;;;;;;;34.83;19.42;;;;;;;;;;2090030;28;20437;-67
2022/12/20 04:28:12;;;;;;;33.47;20.08;;;;;;;;;;2090207;28;20033;-68
2022/12/20 04:29:31;;;;;;;37.00;20.60;;;;;;;;;;2089759;28;20041;-67
2022/12/20 04:30:50;;;;;;;38.67;19.65;;;;;;;;;;2087679;28;20029;-68
2022/12/20 04:32:08;;;;;;;32.90;19.33;;;;;;;;;;2089738;28;20037;-68
2022/12/20 04:33:27;;;;;;;37.70;20.08;;;;;;;;;;2089101;28;20029;-68
2022/12/20 04:34:46;;;;;;;36.95;19.88;;;;;;;;;;2090100;28;20432;-67
2022/12/20 04:36:05;;;;;;;33.75;19.50;;;;;;;;;;2089225;28;20041;-67
2022/12/20 04:37:24;;;;;;;32.75;18.70;;;;;;;;;;2089973;28;20025;-67
2022/12/20 04:38:43;;;;;;;32.58;18.60;;;;;;;;;;2089781;28;20032;-67
2022/12/20 04:40:03;;;;;;;33.85;18.10;;;;;;;;;;2089255;28;20507;-67
2022/12/20 04:41:22;;;;;;;31.58;18.77;;;;;;;;;;2087729;28;20116;-67
2022/12/20 04:42:41;;;;;;;35.45;19.13;;;;;;;;;;2089565;28;20025;-68
2022/12/20 04:43:59;;;;;;;34.10;18.17;;;;;;;;;;2088900;28;20037;-67
2022/12/20 04:45:18;;;;;;;31.08;18.30;;;;;;;;;;2083965;28;20025;-68
2022/12/20 04:46:37;;;;;;;33.92;18.58;;;;;;;;;;2089790;28;20119;-67
2022/12/20 04:47:56;;;;;;;31.58;18.25;;;;;;;;;;2089971;28;20025;-67
2022/12/20 04:49:15;;;;;;;29.50;18.17;;;;;;;;;;2088840;28;20033;-68
2022/12/20 04:50:34;;;;;;;30.95;18.23;;;;;;;;;;2087111;28;20033;-68
2022/12/20 04:51:53;;;;;;;30.50;18.33;;;;;;;;;;2089888;28;20029;-67
2022/12/20 04:54:50;;;;;;;28.77;16.70;;;;;;;;;;2090349;28;20107;-67
2022/12/20 04:56:09;;;;;;;29.25;17.65;;;;;;;;;;2088790;28;20025;-68
2022/12/20 04:57:28;;;;;;;28.65;16.52;;;;;;;;;;2088552;28;20044;-68
2022/12/20 04:58:48;;;;;;;35.25;17.92;;;;;;;;;;2089296;28;20033;-68
2022/12/20 05:00:08;;;;;;;31.05;17.90;;;;;;;;;;2088786;28;20033;-69
2022/12/20 05:01:26;;;;;;;32.42;17.58;;;;;;;;;;2088865;28;20418;-68
2022/12/20 05:02:45;;;;;;;30.55;18.67;;;;;;;;;;2089660;28;20421;-68
2022/12/20 05:04:04;;;;;;;33.30;17.88;;;;;;;;;;2088338;28;20072;-68
2022/12/20 05:05:23;;;;;;;32.42;17.83;;;;;;;;;;2088749;28;20392;-67
2022/12/20 05:06:42;;;;;;;31.10;17.67;;;;;;;;;;2089931;28;20041;-68
2022/12/20 05:08:01;;;;;;;29.08;17.42;;;;;;;;;;2088396;28;20544;-68
2022/12/20 05:09:19;;;;;;;31.00;17.60;;;;;;;;;;2088265;28;20032;-68
2022/12/20 05:10:38;;;;;;;35.45;17.50;;;;;;;;;;2088819;28;20483;-69
2022/12/20 05:11:57;;;;;;;28.70;16.55;;;;;;;;;;2088748;28;20045;-68
2022/12/20 05:13:16;;;;;;;32.63;17.42;;;;;;;;;;2089711;28;20068;-69
2022/12/20 05:14:35;;;;;;;32.92;16.30;;;;;;;;;;2088361;28;20401;-68
2022/12/20 05:15:54;;;;;;;26.67;17.65;;;;;;;;;;2087927;28;20032;-67
2022/12/20 05:17:13;;;;;;;32.83;18.20;;;;;;;;;;2086993;28;20069;-68
2022/12/20 05:18:32;;;;;;;27.58;16.50;;;;;;;;;;2089809;28;20397;-68
2022/12/20 05:19:51;;;;;;;28.55;16.58;;;;;;;;;;2088710;28;20033;-69
2022/12/20 05:26:16;;;;;;;27.63;14.98;;;;;;;;;;2088332;28;20029;-68
2022/12/20 05:27:35;;;;;;;23.15;13.80;;;;;;;;;;2088432;28;20025;-68
2022/12/20 05:28:54;;;;;;;25.20;14.13;;;;;;;;;;2089950;28;20037;-68
2022/12/20 05:30:14;;;;;;;24.73;15.02;;;;;;;;;;2088473;28;20060;-69
2022/12/20 05:31:34;;;;;;;27.48;13.90;;;;;;;;;;2088249;28;20394;-68
2022/12/20 05:32:52;;;;;;;22.10;14.05;;;;;;;;;;2085940;28;20477;-68
2022/12/20 05:34:11;;;;;;;24.58;14.98;;;;;;;;;;2088048;28;20506;-69
2022/12/20 05:35:30;;;;;;;23.40;13.27;;;;;;;;;;2088923;28;20033;-68
2022/12/20 05:36:49;;;;;;;21.70;13.63;;;;;;;;;;2087480;28;20485;-68
2022/12/20 05:38:08;;;;;;;22.95;14.10;;;;;;;;;;2088901;28;20037;-68
2022/12/20 05:39:27;;;;;;;22.00;13.55;;;;;;;;;;2089620;28;20037;-68
2022/12/20 05:40:47;;;;;;;19.98;12.88;;;;;;;;;;2088838;28;20033;-68
2022/12/20 05:42:06;;;;;;;22.45;13.45;;;;;;;;;;2088318;28;20398;-67
2022/12/20 05:43:25;;;;;;;23.15;14.18;;;;;;;;;;2089674;28;20493;-67
2022/12/20 05:44:44;;;;;;;22.92;13.57;;;;;;;;;;2087335;28;20028;-67
2022/12/20 05:46:02;;;;;;;19.92;12.80;;;;;;;;;;2088761;28;20021;-67
2022/12/20 05:47:21;;;;;;;23.40;13.32;;;;;;;;;;2088345;28;20041;-67
2022/12/20 05:48:41;;;;;;;21.52;13.45;;;;;;;;;;2087550;28;20397;-68
2022/12/20 05:49:59;;;;;;;21.35;12.40;;;;;;;;;;2088211;28;20108;-67
2022/12/20 05:51:18;;;;;;;19.90;13.18;;;;;;;;;;2088245;28;20033;-67
2022/12/20 05:52:37;;;;;;;21.38;13.07;;;;;;;;;;2088957;28;20060;-67
2022/12/20 05:53:56;;;;;;;22.10;12.95;;;;;;;;;;2088585;28;20037;-67
2022/12/20 05:55:15;;;;;;;23.55;12.80;;;;;;;;;;2088429;28;20037;-67
2022/12/20 05:56:34;;;;;;;21.98;12.70;;;;;;;;;;2087790;28;20481;-68
2022/12/20 05:57:53;;;;;;;22.40;12.02;;;;;;;;;;2087952;28;20111;-68
2022/12/20 05:59:12;;;;;;;19.40;12.38;;;;;;;;;;2087801;28;20108;-68
2022/12/20 06:00:31;;;;;;;20.23;12.85;;;;;;;;;;2085634;28;20037;-68
2022/12/20 06:01:50;;;;;;;18.67;11.85;;;;;;;;;;2086217;28;20025;-69
2022/12/20 06:03:10;;;;;;;18.73;12.65;;;;;;;;;;2087146;28;20486;-69
2022/12/20 06:04:30;;;;;;;20.88;12.10;;;;;;;;;;2088214;28;20044;-69
2022/12/20 06:05:49;;;;;;;21.85;13.07;;;;;;;;;;2087651;28;20440;-68
2022/12/20 06:07:08;;;;;;;19.58;12.35;;;;;;;;;;2087046;28;20071;-70
2022/12/20 06:08:26;;;;;;;27.92;12.65;;;;;;;;;;2088089;28;20517;-69
2022/12/20 06:09:45;;;;;;;22.42;12.95;;;;;;;;;;2086839;28;20470;-69
2022/12/20 06:11:05;;;;;;;19.48;12.40;;;;;;;;;;2089290;28;20497;-68
2022/12/20 06:12:25;;;;;;;18.73;12.40;;;;;;;;;;2088220;28;20032;-69
2022/12/20 06:13:44;;;;;;;17.80;11.82;;;;;;;;;;2088112;28;20509;-69
2022/12/20 06:15:03;;;;;;;20.65;13.38;;;;;;;;;;2087569;28;20033;-70
2022/12/20 06:16:22;;;;;;;22.20;13.73;;;;;;;;;;2087263;28;20036;-69
2022/12/20 06:17:41;;;;;;;23.17;11.60;;;;;;;;;;2086981;28;20379;-69
2022/12/20 06:19:00;;;;;;;18.65;11.68;;;;;;;;;;2089026;28;20028;-69
2022/12/20 06:20:19;;;;;;;16.83;11.48;;;;;;;;;;2089009;28;20020;-70
2022/12/20 06:21:38;;;;;;;19.17;11.88;;;;;;;;;;2087954;28;20025;-69
2022/12/20 06:22:57;;;;;;;18.70;11.50;;;;;;;;;;2087959;28;20036;-70
2022/12/20 06:24:15;;;;;;;19.55;11.77;;;;;;;;;;2088507;28;20029;-69
2022/12/20 06:25:34;;;;;;;19.90;11.18;;;;;;;;;;2089026;28;20450;-69
2022/12/20 06:26:53;;;;;;;19.80;12.60;;;;;;;;;;2087446;28;20037;-69
2022/12/20 06:28:12;;;;;;;21.30;12.27;;;;;;;;;;2087346;28;20502;-68
2022/12/20 06:29:31;;;;;;;25.00;14.30;;;;;;;;;;2088325;28;20037;-68
2022/12/20 06:30:54;;;;;;;20.25;12.10;;;;;;;;;;2087963;28;20029;-69
2022/12/20 06:32:13;;;;;;;;;;;;;;;;;;2088784;28;20021;-69
2022/12/20 06:33:32;;;;;;;22.73;13.20;;;;;;;;;;2089331;28;20273;-68
2022/12/20 06:34:51;;;;;;;18.77;11.88;;;;;;;;;;2088809;28;20033;-68
2022/12/20 06:36:10;;;;;;;16.15;11.50;;;;;;;;;;2087950;28;20504;-68
2022/12/20 06:37:30;;;;;;;16.25;10.60;;;;;;;;;;2086621;28;20041;-69
2022/12/20 06:38:50;;;;;;;15.98;10.60;;;;;;;;;;2088246;28;20417;-69
2022/12/20 06:40:10;;;;;;;14.50;10.13;;;;;;;;;;2088200;28;20062;-68
2022/12/20 06:41:30;;;;;;;16.88;10.65;;;;;;;;;;2088712;28;20025;-69
2022/12/20 06:42:49;;;;;;;24.27;14.23;;;;;;;;;;2087103;28;20021;-69
2022/12/20 06:44:08;;;;;;;17.25;11.20;;;;;;;;;;2088642;28;20474;-69
2022/12/20 06:45:27;;;;;;;15.68;10.57;;;;;;;;;;2086991;28;20494;-68
2022/12/20 06:46:46;;;;;;;15.05;10.35;;;;;;;;;;2087534;28;20493;-69
2022/12/20 06:48:05;;;;;;;17.02;11.38;;;;;;;;;;2086566;28;20478;-68
2022/12/20 06:49:24;;;;;;;15.73;10.68;;;;;;;;;;2087756;28;20037;-68
2022/12/20 06:50:43;;;;;;;17.67;11.55;;;;;;;;;;2085084;28;20111;-69
2022/12/20 06:52:02;;;;;;;18.42;10.95;;;;;;;;;;2087929;28;20111;-69
2022/12/20 06:53:21;;;;;;;17.33;11.82;;;;;;;;;;2088182;28;20585;-69
2022/12/20 06:54:40;;;;;;;15.63;11.40;;;;;;;;;;2088778;28;20024;-68
2022/12/20 06:55:59;;;;;;;13.57;10.80;;;;;;;;;;2088032;28;20041;-68
2022/12/20 06:57:18;;;;;;;15.95;10.48;;;;;;;;;;2087491;28;20025;-68
2022/12/20 06:58:37;;;;;;;21.92;11.35;;;;;;;;;;2088589;28;20028;-69
2022/12/20 06:59:56;;;;;;;14.50;10.27;;;;;;;;;;2088786;28;20025;-69
2022/12/20 07:01:15;;;;;;;13.60;9.90;;;;;;;;;;2086531;28;20087;-68
2022/12/20 07:02:34;;;;;;;18.52;10.27;;;;;;;;;;2087329;28;20033;-68
2022/12/20 07:03:53;;;;;;;16.65;11.05;;;;;;;;;;2086169;28;20540;-68
2022/12/20 07:05:12;;;;;;;18.90;11.35;;;;;;;;;;2088471;28;20036;-69
2022/12/20 07:06:31;;;;;;;17.17;11.15;;;;;;;;;;2088768;28;20029;-68
2022/12/20 07:07:49;;;;;;;14.80;10.68;;;;;;;;;;2087889;28;21429;-68
2022/12/20 07:09:08;;;;;;;13.90;9.82;;;;;;;;;;2089471;28;20437;-67
2022/12/20 07:10:27;;;;;;;19.05;10.95;;;;;;;;;;2087676;28;20029;-67
2022/12/20 07:11:46;;;;;;;16.83;10.57;;;;;;;;;;2087953;28;20033;-67
2022/12/20 07:13:05;;;;;;;17.88;11.55;;;;;;;;;;2095439;28;20028;-68
2022/12/20 07:14:25;;;;;;;18.70;11.98;;;;;;;;;;2091104;28;20039;-68
2022/12/20 07:15:44;;;;;;;16.15;10.95;;;;;;;;;;2089014;28;20013;-68
2022/12/20 07:17:03;;;;;;;15.88;10.93;;;;;;;;;;2087304;28;20033;-68
2022/12/20 07:18:22;;;;;;;14.90;11.00;;;;;;;;;;2086843;28;20037;-68
2022/12/20 07:19:42;;;;;;;17.15;11.55;;;;;;;;;;2088583;28;20029;-68
2022/12/20 07:21:01;;;;;;;17.63;11.25;;;;;;;;;;2088945;28;20386;-68
2022/12/20 07:22:21;;;;;;;20.83;11.27;;;;;;;;;;2088023;28;20382;-68
2022/12/20 07:23:39;;;;;;;19.60;12.02;;;;;;;;;;2086072;28;21054;-68
2022/12/20 07:24:58;;;;;;;17.70;11.02;;;;;;;;;;2089558;28;20478;-68
2022/12/20 07:26:17;;;;;;;17.95;10.82;;;;;;;;;;2090191;28;20100;-68
2022/12/20 07:27:36;;;;;;;18.13;10.85;;;;;;;;;;2090359;28;20021;-68
2022/12/20 07:28:55;;;;;;;18.65;11.13;;;;;;;;;;2089769;28;20036;-67
2022/12/20 07:30:14;;;;;;;17.50;10.73;;;;;;;;;;2087856;28;20049;-68
2022/12/20 07:31:33;;;;;;;17.52;11.15;;;;;;;;;;2090340;28;20036;-69
2022/12/20 07:32:52;;;;;;;17.80;11.52;;;;;;;;;;2090201;28;20936;-68
2022/12/20 07:34:11;;;;;;;19.55;10.95;;;;;;;;;;2089798;28;20068;-68
2022/12/20 07:35:30;;;;;;;17.00;11.07;;;;;;;;;;2090043;28;20033;-68
2022/12/20 07:36:49;;;;;;;17.73;11.30;;;;;;;;;;2089302;28;20037;-68
2022/12/20 07:38:08;;;;;;;14.43;10.82;;;;;;;;;;2089500;28;20115;-68
2022/12/20 07:39:27;;;;;;;16.30;10.43;;;;;;;;;;2089551;28;20029;-68
2022/12/20 07:40:46;;;;;;;20.45;11.88;;;;;;;;;;2089501;28;20385;-68
2022/12/20 07:42:05;;;;;;;18.70;10.55;;;;;;;;;;2088973;28;20450;-68
2022/12/20 07:43:24;;;;;;;16.17;11.25;;;;;;;;;;2086137;28;20021;-68
2022/12/20 07:44:43;;;;;;;17.80;11.07;;;;;;;;;;2089753;28;20041;-68
2022/12/20 07:46:02;;;;;;;16.60;11.00;;;;;;;;;;2086279;28;20044;-69
2022/12/20 07:47:21;;;;;;;15.52;10.82;;;;;;;;;;2087562;28;20045;-68
2022/12/20 07:48:40;;;;;;;16.77;11.32;;;;;;;;;;2088297;28;20060;-68
2022/12/20 07:49:59;;;;;;;18.15;10.90;;;;;;;;;;2090428;28;20033;-68
2022/12/20 07:51:21;;;;;;;14.43;10.80;;;;;;;;;;2089895;28;20029;-68
2022/12/20 07:52:42;;;;;;;16.75;10.40;;;;;;;;;;2089238;28;20311;-68
2022/12/20 07:54:12;;;;;;;19.55;11.15;;;;;;;;;;2086916;28;20040;-68
2022/12/20 07:55:32;;;;;;;16.17;11.27;;;;;;;;;;2089660;28;20041;-67